MMQT 090450Z 10004KT 7SM SKC 13/M01 A3033= 090451

MMQT 090341Z 12005KT 7SM SKC 12/01 A3032= 090342

MMQT 090247Z 00000KT 7SM SKC 15/00 A3031= 090247

MMQT 090143Z 00000KT 7SM SKC 17/01 A3029= 090148

MMQT 090040Z 00000KT 7SM SKC 19/01 A3026= 090041

SPECI MMQT 082349Z 28005KT 7SM FEW270 23/01 A3025 RMK 8/001= 082349

MMQT 082250Z 00000KT 7SM FEW270 25/M02 A3024 RMK 8/001= 082251

MMQT 082140Z 00000KT 7SM SCT270 25/M01 A3024 RMK 8/001= 082144

MMQT 082040Z 00000KT 7SM SCT250 26/M01 A3025 RMK 8/002= 082042

MMQT 081941Z 25008KT 7SM BKN250 25/M02 A3027 RMK 8/002= 081942

MMQT 081848Z 31008KT 7SM BKN250 24/00 A3031 RMK 8/002= 081848

MMQT 081743Z 00000KT 8SM BKN250 22/05 A3035 RMK 8/002= 081743

MMQT 081642Z 00000KT 7SM SCT250 19/06 A3039 RMK 8/002= 081643

MMQT 081540Z 14005KT 7SM SCT250 15/06 A3041 RMK 8/006= 081541

MMQT 081440Z 00000KT 7SM SCT250 12/06 A3041 RMK 8/006= 081441

MMQT 081346Z 00000KT 7SM SCT250 05/04 A3039 RMK 8/005= 081347

MMQT 081246Z 00000KT 5SM SCT250 05/04 A3037 RMK 8/005= 081247

MMQT 081140Z 00000KT 4SM SKC 04/03 A3035 RMK CI= 081141

MMQT 081040Z 00000KT 4SM SKC 07/04 A3034 RMK CI= 081041

MMQT 080940Z 00000KT 5SM SKC 08/04 A3033= 080941

MMQT 080841Z 00000KT 5SM SKC 08/04 A3033 RMK CI= 080841

MMQT 080741Z 00000KT 5SM SKC 08/04 A3033= 080741

MMQT 080640Z 00000KT 5SM SKC 09/04 A3034= 080641

MMQT 080540Z 00000KT 6SM SKC 12/04 A3033= 080541

MMQT 080442Z 08006KT 6SM SKC 14/04 A3032= 080442

MMQT 080340Z 00000KT 7SM SKC 15/04 A3031= 080340

MMQT 080250Z 00000KT 7SM SKC 15/04 A3029= 080251

MMQT 080152Z 32004KT 7SM SKC 16/05 A3027= 080153

MMQT 080050Z 00000KT 7SM SKC 18/06 A3025 RMK HZY= 080051

MMQT 072359Z RTD 30006KT 7SM SKC 21/06 A3024 RMK HZY= 080000

MMQT 072245Z 31007KT 7SM SKC 24/06 A3022 RMK HZY= 072245

MMQT 072140Z 30008KT 7SM SKC 25/07 A3022 RMK HZY= 072141

MMQT 072110Z RTD 29006KT 7SM SKC 24/07 A3022 RMK HZY= 072111

COR MMQT 071958Z 33002KT 5SM SKC 24/07 A3025 RMK HZY= 072000

MMQT 071958Z RTD 33002KT 5SM SKC 24/07 A3025= 071959

MMQT 071844Z 25003KT 5SM SKC 22/07 A3030 RMK HZY CI= 071845

MMQT 071743Z 04004KT 4SM SKC 20/08 A3035 RMK HZY CU/S= 071744

MMQT 071707Z RTD 03002KT 4SM SCT250 18/08 A3037 RMK 8/001 HZY= 071708

MMQT 071543Z 15006KT 4SM SCT250 15/09 A3038 RMK 8/001= 071543

MMQT 071440Z 00000KT 4SM SCT250 12/08 A3038 RMK 8/001= 071443

MMQT 071342Z 00000KT 4SM SKC 06/05 A3036= 071342

MMQT 071244Z 00000KT 4SM SKC 06/06 A3034 RMK HZY= 071244

MMQT 071142Z 00000KT 4SM SKC 07/07 A3034 RMK HZY= 071143

MMQT 071041Z 00000KT 4SM SKC 07/06 A3033 RMK HZY= 071041

MMQT 070940Z 00000KT 5SM SKC 09/07 A3033 RMK HZY= 070941

MMQT 070842Z 08004KT 5SM SKC 10/07 A3034 RMK HZY= 070842

MMQT 070740Z 08005KT 5SM SKC 11/07 A3034 RMK HZY= 070741

MMQT 070644Z 10004KT 5SM SKC 11/07 A3035 RMK HZY= 070645

MMQT 070556Z 00000KT 5SM SKC 12/08 A3036 RMK HZY= 070556

MMQT 070502Z RTD 09005KT 5SM SKC 12/07 A3037= 070502